Time;durP1;ratioP1;P1;durP2;ratioP2;P2;SDS_P1;SDS_P2;PMS_P1;PMS_P2;Temp;Humidity;BMP_temperature;BMP_pressure;BME280_temperature;BME280_humidity;BME280_pressure;Samples;Min_cycle;Max_cycle;Signal;HPM_P1;HPM_P2
2023/09/07 00:01:57;;;;;;;9.17;8.17;;;18.70;99.90;;;;;;6193881;23;20419;-90
2023/09/07 00:04:24;;;;;;;9.73;8.73;;;18.60;99.90;;;;;;6212142;23;20388;-90
2023/09/07 00:06:51;;;;;;;11.07;8.37;;;18.60;1.00;;;;;;6213251;23;20419;-89
2023/09/07 00:09:21;;;;;;;8.37;7.40;;;18.70;1.00;;;;;;6209917;23;20475;-89
2023/09/07 00:11:49;;;;;;;8.77;7.97;;;;;;;;;;6193037;23;20420;-89
2023/09/07 00:14:16;;;;;;;8.30;7.60;;;;;;;;;;6191917;23;20474;-89
2023/09/07 00:16:43;;;;;;;9.70;8.77;;;18.50;99.90;;;;;;6192468;23;20407;-89
2023/09/07 00:22:35;;;;;;;9.00;8.20;;;18.50;99.90;;;;;;6202168;23;20418;-87
2023/09/07 00:25:03;;;;;;;9.73;8.90;;;18.50;99.90;;;;;;6209419;23;20407;-88
2023/09/07 00:27:30;;;;;;;9.50;8.63;;;18.50;99.90;;;;;;6202428;23;20487;-88
2023/09/07 00:29:57;;;;;;;8.33;7.63;;;18.50;99.90;;;;;;6195575;23;20426;-88
2023/09/07 00:32:24;;;;;;;9.50;8.60;;;18.50;99.90;;;;;;6192738;23;20407;-88
2023/09/07 00:34:58;;;;;;;11.33;9.77;;;;;;;;;;6193562;23;20549;-90
2023/09/07 00:37:52;;;;;;;8.93;8.03;;;18.50;99.90;;;;;;6213859;23;20470;-91
2023/09/07 00:40:35;;;;;;;9.20;8.40;;;;;;;;;;6214164;23;20390;-91
2023/09/07 00:43:10;;;;;;;9.97;9.07;;;;;;;;;;6204420;23;20415;-90
2023/09/07 00:45:45;;;;;;;11.50;8.00;;;;;;;;;;6197802;23;20376;-89
2023/09/07 00:54:50;;;;;;;8.53;7.80;;;;;;;;;;6144882;23;20463;-90
2023/09/07 01:00:28;;;;;;;10.07;9.07;;;;;;;;;;6191967;23;20404;-91
2023/09/07 01:03:13;;;;;;;11.00;8.63;;;;;;;;;;6189770;23;20411;-90
2023/09/07 01:06:11;;;;;;;9.53;8.00;;;18.20;99.90;;;;;;6189302;23;20422;-89
2023/09/07 01:08:53;;;;;;;13.23;8.93;;;18.20;99.90;;;;;;6189823;23;20399;-90
2023/09/07 01:11:26;;;;;;;9.77;8.70;;;;;;;;;;6189313;23;20411;-91
2023/09/07 01:13:57;;;;;;;9.30;8.20;;;;;;;;;;6190139;23;20447;-90
2023/09/07 01:16:30;;;;;;;11.00;8.53;;;18.10;1.00;;;;;;6191950;23;20446;-90
2023/09/07 01:19:01;;;;;;;11.83;8.60;;;;;;;;;;6189940;23;21049;-91
2023/09/07 01:21:30;;;;;;;10.97;9.50;;;;;;;;;;6188967;23;20438;-91
2023/09/07 01:27:03;;;;;;;9.60;8.70;;;;;;;;;;6187993;23;20418;-91
2023/09/07 01:29:41;;;;;;;8.87;8.07;;;;;;;;;;6188771;23;20384;-90
2023/09/07 01:35:07;;;;;;;11.50;9.20;;;18.10;1.00;;;;;;6184616;23;20459;-90
2023/09/07 01:37:45;;;;;;;8.90;8.03;;;;;;;;;;6188906;23;20411;-90
2023/09/07 01:46:12;;;;;;;8.00;7.30;;;;;;;;;;6178947;23;20423;-91
2023/09/07 01:48:44;;;;;;;9.13;8.23;;;;;;;;;;6188917;23;20415;-90
2023/09/07 01:51:23;;;;;;;9.07;8.27;;;;;;;;;;6190739;23;20402;-90
2023/09/07 01:54:00;;;;;;;9.17;8.27;;;;;;;;;;6190330;23;20446;-90
2023/09/07 01:59:38;;;;;;;7.93;7.13;;;;;;;;;;6188642;23;20403;-90
2023/09/07 02:02:19;;;;;;;;;;;;;;;;;;;;;
2023/09/07 02:07:39;;;;;;;8.63;7.70;;;;;;;;;;6184742;23;20414;-90
2023/09/07 02:13:05;;;;;;;11.90;10.70;;;;;;;;;;6169959;23;20418;-91
2023/09/07 02:16:02;;;;;;;9.33;8.40;;;18.10;99.90;;;;;;6189587;23;20446;-91
2023/09/07 02:18:47;;;;;;;11.43;8.23;;;18.10;99.90;;;;;;6069983;23;20422;-90
2023/09/07 02:21:52;;;;;;;;;;;;;;;;;;;;;
2023/09/07 02:24:23;;;;;;;10.67;7.90;;;;;;;;;;6070701;23;20802;-90
2023/09/07 02:27:04;;;;;;;8.30;7.00;;;;;;;;;;6164623;23;20403;-90
2023/09/07 02:29:45;;;;;;;8.57;7.77;;;;;;;;;;6181732;23;20778;-90
2023/09/07 02:32:25;;;;;;;8.77;8.07;;;;;;;;;;6190272;23;20395;-90
2023/09/07 02:35:13;;;;;;;9.70;8.80;;;;;;;;;;6190914;23;20524;-91
2023/09/07 02:37:45;;;;;;;8.63;7.77;;;;;;;;;;6211993;23;20407;-90
2023/09/07 02:45:47;;;;;;;8.60;7.80;;;;;;;;;;6227742;23;20444;-90
2023/09/07 02:48:23;;;;;;;9.00;8.20;;;;;;;;;;6238945;23;20394;-90
2023/09/07 02:50:53;;;;;;;11.57;8.70;;;;;;;;;;6244644;23;20421;-90
2023/09/07 02:53:32;;;;;;;11.23;8.20;;;;;;;;;;6240534;23;20441;-90
2023/09/07 02:56:13;;;;;;;10.37;9.17;;;;;;;;;;6223553;23;20373;-90
2023/09/07 02:58:47;;;;;;;9.53;8.63;;;;;;;;;;6230593;23;20410;-89
2023/09/07 03:04:50;;;;;;;11.80;9.27;;;;;;;;;;6219243;23;20426;-90
2023/09/07 03:10:25;;;;;;;9.53;8.63;;;;;;;;;;6243502;23;20386;-90
2023/09/07 03:13:40;;;;;;;12.17;8.10;;;17.30;1.00;;;;;;6245217;23;20383;-89
2023/09/07 03:16:13;;;;;;;9.03;8.13;;;;;;;;;;6228520;23;20414;-89
2023/09/07 03:18:45;;;;;;;9.40;8.00;;;;;;;;;;6224253;23;20383;-89
2023/09/07 03:24:50;;;;;;;8.43;7.60;;;;;;;;;;6038947;23;20420;-89
2023/09/07 03:30:20;;;;;;;9.27;8.37;;;;;;;;;;6207722;23;20411;-90
2023/09/07 03:33:08;;;;;;;9.87;8.97;;;;;;;;;;6220680;23;20409;-90
2023/09/07 03:35:58;;;;;;;8.93;7.70;;;;;;;;;;6218611;23;20442;-90
2023/09/07 03:38:49;;;;;;;;;;;;;;;;;;;;;
2023/09/07 03:54:08;;;;;;;10.10;8.83;;;;;;;;;;6148756;23;20521;-89
2023/09/07 03:56:51;;;;;;;13.00;9.90;;;;;;;;;;6191458;23;20425;-89
2023/09/07 04:02:35;;;;;;;10.70;9.57;;;17.40;99.90;;;;;;6185036;23;20444;-89
2023/09/07 04:05:44;;;;;;;;;;;;;;;;;;;;;
2023/09/07 04:12:06;;;;;;;10.80;9.30;;;17.40;99.90;;;;;;6179936;23;20422;-89
2023/09/07 04:20:30;;;;;;;12.90;8.63;;;17.40;99.90;;;;;;6090044;23;20441;-90
2023/09/07 04:27:18;;;;;;;9.47;8.67;;;17.30;1.00;;;;;;6190350;23;20399;-90
2023/09/07 04:30:04;;;;;;;10.40;9.47;;;;;;;;;;6191910;23;20746;-90
2023/09/07 04:32:44;;;;;;;10.50;9.13;;;;;;;;;;6191563;23;20462;-89
2023/09/07 04:35:19;;;;;;;11.53;10.53;;;;;;;;;;6192249;23;20457;-89
2023/09/07 04:41:13;;;;;;;18.30;9.80;;;17.30;1.00;;;;;;6190674;23;20387;-90
2023/09/07 04:44:33;;;;;;;15.03;9.80;;;17.30;1.00;;;;;;6164275;23;20758;-89
2023/09/07 04:47:03;;;;;;;9.93;9.00;;;;;;;;;;6213771;23;20456;-90
2023/09/07 04:56:48;;;;;;;10.07;8.67;;;17.30;1.00;;;;;;6225557;23;20453;-89
2023/09/07 04:59:35;;;;;;;12.77;10.13;;;;;;;;;;6243597;23;20422;-90
2023/09/07 05:02:22;;;;;;;13.70;9.10;;;17.30;1.00;;;;;;6243691;23;20363;-89
2023/09/07 05:05:44;;;;;;;10.03;9.13;;;17.20;1.00;;;;;;6234353;23;20453;-89
2023/09/07 05:08:25;;;;;;;11.07;9.53;;;;;;;;;;6223776;23;20457;-89
2023/09/07 05:11:35;;;;;;;10.33;9.23;;;17.30;1.00;;;;;;6223480;23;20501;-89
2023/09/07 05:14:33;;;;;;;10.40;9.40;;;17.20;1.00;;;;;;6222407;23;20525;-89
2023/09/07 05:17:28;;;;;;;10.67;8.77;;;;;;;;;;6184441;23;20426;-90
2023/09/07 05:20:27;;;;;;;11.97;10.60;;;17.20;1.00;;;;;;6224006;23;20456;-91
2023/09/07 05:29:44;;;;;;;12.37;9.87;;;;;;;;;;6184305;23;20485;-90
2023/09/07 05:33:06;;;;;;;10.63;9.63;;;17.40;1.00;;;;;;6243383;23;20732;-91
2023/09/07 05:35:35;;;;;;;10.27;9.27;;;;;;;;;;6123666;23;20473;-89
2023/09/07 05:38:02;;;;;;;14.13;9.83;;;;;;;;;;6123525;23;20386;-87
2023/09/07 05:40:29;;;;;;;13.13;9.90;;;;;;;;;;6175525;23;20892;-87
2023/09/07 05:42:59;;;;;;;12.77;10.33;;;17.70;99.90;;;;;;6228010;23;20413;-87
2023/09/07 05:45:26;;;;;;;11.80;10.70;;;17.70;99.90;;;;;;6223427;23;20390;-88
2023/09/07 05:47:53;;;;;;;9.27;8.40;;;17.70;1.00;;;;;;6225277;23;20421;-88
2023/09/07 05:50:20;;;;;;;11.83;10.27;;;17.70;99.90;;;;;;6239878;23;20394;-88
2023/09/07 05:52:48;;;;;;;11.37;9.17;;;17.80;99.90;;;;;;6235119;23;20401;-88
2023/09/07 05:55:15;;;;;;;9.37;8.50;;;17.80;99.90;;;;;;6224753;23;20442;-88
2023/09/07 05:57:42;;;;;;;12.73;11.43;;;;;;;;;;6221994;23;20430;-87
2023/09/07 06:00:30;;;;;;;10.37;9.27;;;17.90;99.90;;;;;;6222532;23;20460;-87
2023/09/07 06:02:59;;;;;;;11.13;8.90;;;;;;;;;;6221830;23;20485;-88
2023/09/07 06:05:26;;;;;;;11.30;10.20;;;;;;;;;;6226070;23;20394;-89
2023/09/07 06:07:58;;;;;;;14.17;10.40;;;;;;;;;;6221339;23;20418;-88
2023/09/07 06:10:29;;;;;;;11.27;9.10;;;;;;;;;;6230474;23;20398;-89
2023/09/07 06:12:57;;;;;;;12.57;9.90;;;;;;;;;;6231671;23;20425;-89
2023/09/07 06:15:42;;;;;;;10.83;8.73;;;;;;;;;;6237466;23;20444;-89
2023/09/07 06:18:27;;;;;;;11.27;9.20;;;;;;;;;;6231525;23;20387;-88
2023/09/07 06:21:28;;;;;;;11.27;9.03;;;18.50;99.90;;;;;;6228129;23;20403;-88
2023/09/07 06:24:06;;;;;;;12.37;10.10;;;;;;;;;;6222817;23;20468;-87
2023/09/07 06:26:44;;;;;;;10.47;9.30;;;;;;;;;;6224281;23;20838;-87
2023/09/07 06:29:20;;;;;;;10.07;8.87;;;;;;;;;;6221449;23;20441;-88
2023/09/07 06:31:49;;;;;;;14.70;8.47;;;;;;;;;;6230515;23;20382;-89
2023/09/07 06:37:09;;;;;;;13.83;10.00;;;;;;;;;;6218688;23;20517;-89
2023/09/07 06:39:42;;;;;;;10.97;9.87;;;;;;;;;;6222472;23;20482;-88
2023/09/07 06:42:17;;;;;;;10.47;9.00;;;;;;;;;;6225739;23;20398;-88
2023/09/07 06:44:51;;;;;;;14.77;10.90;;;;;;;;;;6226130;23;20887;-88
2023/09/07 06:47:33;;;;;;;14.07;10.30;;;;;;;;;;6223062;23;20907;-89
2023/09/07 06:50:04;;;;;;;15.20;10.93;;;;;;;;;;6229929;23;20414;-88
2023/09/07 06:52:43;;;;;;;15.37;8.93;;;;;;;;;;6235634;23;20406;-87
2023/09/07 06:55:43;;;;;;;8.90;8.10;;;19.20;18.80;;;;;;6225390;23;20453;-88
2023/09/07 06:59:23;;;;;;;;;;;;;;;;;;;;;
2023/09/07 07:02:01;;;;;;;11.37;8.30;;;;;;;;;;6242159;23;20392;-87
2023/09/07 07:04:32;;;;;;;10.10;8.33;;;;;;;;;;6245046;23;20416;-87
2023/09/07 07:07:01;;;;;;;13.40;9.20;;;;;;;;;;6243965;23;20402;-87
2023/09/07 07:09:36;;;;;;;10.63;8.03;;;;;;;;;;6245121;23;20398;-87
2023/09/07 07:12:41;;;;;;;11.60;9.00;;;19.70;1.00;;;;;;6243159;23;20410;-87
2023/09/07 07:21:53;;;;;;;12.43;9.07;;;;;;;;;;6101783;23;20396;-88
2023/09/07 07:24:29;;;;;;;8.83;7.90;;;;;;;;;;6103736;23;20438;-87
2023/09/07 07:27:04;;;;;;;8.30;7.50;;;;;;;;;;6107705;23;20394;-88
2023/09/07 07:29:36;;;;;;;10.20;7.33;;;;;;;;;;6080447;23;20409;-88
2023/09/07 07:35:45;;;;;;;10.27;8.40;;;;;;;;;;6236342;23;20430;-89
2023/09/07 07:41:23;;;;;;;9.73;8.73;;;20.60;99.90;;;;;;6146945;23;20388;-88
2023/09/07 07:44:03;;;;;;;11.57;10.30;;;;;;;;;;6146301;23;20441;-87
2023/09/07 07:46:49;;;;;;;10.87;8.90;;;;;;;;;;6191138;23;20422;-88
2023/09/07 07:55:15;;;;;;;10.90;7.17;;;;;;;;;;6231612;23;20448;-88
2023/09/07 07:58:56;;;;;;;8.93;6.50;;;21.30;9.30;;;;;;6230086;23;20400;-91
2023/09/07 08:01:41;;;;;;;;;;;;;;;;;;;;;
2023/09/07 08:04:56;;;;;;;7.73;7.03;;;21.50;1.00;;;;;;6235871;23;20422;-88
2023/09/07 08:07:37;;;;;;;8.47;7.67;;;;;;;;;;6210605;23;20924;-88
2023/09/07 08:13:35;;;;;;;8.13;7.33;;;;;;;;;;6220695;23;20422;-87
2023/09/07 08:17:01;;;;;;;7.93;7.13;;;21.80;1.00;;;;;;6222659;23;20445;-88
2023/09/07 08:22:36;;;;;;;8.20;6.70;;;;;;;;;;6213592;23;20407;-88
2023/09/07 08:25:23;;;;;;;7.77;7.07;;;22.00;1.00;;;;;;6229400;23;20446;-88
2023/09/07 08:27:57;;;;;;;9.30;7.40;;;;;;;;;;6234662;23;20474;-88
2023/09/07 08:30:28;;;;;;;8.00;7.20;;;;;;;;;;6240337;23;20430;-87
2023/09/07 08:33:16;;;;;;;11.97;8.07;;;;;;;;;;6233917;23;20406;-88
2023/09/07 08:36:01;;;;;;;5.77;5.23;;;22.40;1.00;;;;;;6221709;23;20836;-87
2023/09/07 08:38:42;;;;;;;;;;;;;;;;;;;;;
2023/09/07 08:41:26;;;;;;;11.40;7.53;;;;;;;;;;6219743;23;20457;-87
2023/09/07 08:44:08;;;;;;;7.87;6.57;;;22.80;1.00;;;;;;6220688;23;20426;-88
2023/09/07 08:46:53;;;;;;;6.80;5.80;;;22.90;1.00;;;;;;6221936;23;20468;-89
2023/09/07 08:49:33;;;;;;;7.10;6.40;;;22.90;1.00;;;;;;6222237;23;20474;-88
2023/09/07 08:52:42;;;;;;;7.80;6.90;;;23.00;1.00;;;;;;6220775;23;20406;-87
2023/09/07 08:58:21;;;;;;;6.87;6.27;;;;;;;;;;6211566;23;20402;-87
2023/09/07 09:01:02;;;;;;;6.87;6.27;;;;;;;;;;6220688;23;20363;-88
2023/09/07 09:03:34;;;;;;;6.30;5.70;;;;;;;;;;6221137;23;20438;-88
2023/09/07 09:06:08;;;;;;;8.60;6.37;;;;;;;;;;6223549;23;20409;-88
2023/09/07 09:08:56;;;;;;;8.23;6.20;;;23.40;1.00;;;;;;6227534;23;20393;-88
2023/09/07 09:11:35;;;;;;;8.33;6.00;;;;;;;;;;6239889;23;20387;-88
2023/09/07 09:14:16;;;;;;;7.83;6.93;;;;;;;;;;6222101;23;20406;-89
2023/09/07 09:16:51;;;;;;;7.30;6.50;;;;;;;;;;6227305;23;20414;-89
2023/09/07 09:19:19;;;;;;;11.73;6.90;;;;;;;;;;6242192;23;20429;-87
2023/09/07 09:21:48;;;;;;;7.37;6.67;;;;;;;;;;6241778;23;20391;-87
2023/09/07 09:24:30;;;;;;;9.70;6.20;;;23.70;1.00;;;;;;6239416;23;20433;-87
2023/09/07 09:27:20;;;;;;;9.57;5.43;;;23.80;1.00;;;;;;6229659;23;20390;-87
2023/09/07 09:29:48;;;;;;;7.43;6.63;;;;;;;;;;6222552;23;20414;-89
2023/09/07 09:32:23;;;;;;;7.43;6.83;;;;;;;;;;6224290;23;20418;-87
2023/09/07 09:37:42;;;;;;;8.10;7.27;;;24.00;1.00;;;;;;6221206;23;20422;-88
2023/09/07 09:40:29;;;;;;;8.20;7.23;;;24.10;1.00;;;;;;6241787;23;20398;-88
2023/09/07 09:45:41;;;;;;;8.30;6.37;;;24.30;1.00;;;;;;6201799;23;20423;-88
2023/09/07 09:48:13;;;;;;;7.17;6.57;;;;;;;;;;6195801;23;20419;-88
2023/09/07 09:50:51;;;;;;;7.77;6.70;;;24.40;1.00;;;;;;6196316;23;20901;-89
2023/09/07 09:53:26;;;;;;;8.30;6.03;;;24.50;1.00;;;;;;6206590;23;20498;-88
2023/09/07 09:56:01;;;;;;;7.43;6.60;;;;;;;;;;6225945;23;20822;-88
2023/09/07 09:58:44;;;;;;;7.30;6.10;;;24.60;1.00;;;;;;6222517;23;20387;-87
2023/09/07 10:01:24;;;;;;;6.73;6.23;;;;;;;;;;6226579;23;20473;-88
2023/09/07 10:04:05;;;;;;;6.40;5.80;;;24.60;1.00;;;;;;6238453;23;20418;-87
2023/09/07 10:06:41;;;;;;;8.10;6.03;;;;;;;;;;6232522;23;20419;-88
2023/09/07 10:09:19;;;;;;;12.30;7.00;;;;;;;;;;6222089;23;20410;-88
2023/09/07 10:12:08;;;;;;;7.37;5.40;;;;;;;;;;6224048;23;20414;-88
2023/09/07 10:17:34;;;;;;;6.70;6.03;;;;;;;;;;6211740;23;20461;-88
2023/09/07 10:20:07;;;;;;;6.73;5.73;;;;;;;;;;6225342;23;20433;-88
2023/09/07 10:22:35;;;;;;;6.20;5.60;;;;;;;;;;6223399;23;20417;-88
2023/09/07 10:25:09;;;;;;;8.10;6.50;;;;;;;;;;6224221;23;20434;-88
2023/09/07 10:27:55;;;;;;;5.97;5.47;;;;;;;;;;6234858;23;20433;-87
2023/09/07 10:30:40;;;;;;;8.43;6.63;;;;;;;;;;6244780;23;20405;-88
2023/09/07 10:33:08;;;;;;;8.70;6.87;;;;;;;;;;6238460;23;20398;-87
2023/09/07 10:35:42;;;;;;;6.67;6.07;;;25.30;99.90;;;;;;6243422;23;20406;-88
2023/09/07 10:38:28;;;;;;;6.80;5.90;;;;;;;;;;6243433;23;20382;-88
2023/09/07 10:41:11;;;;;;;8.50;5.37;;;25.40;99.90;;;;;;6240475;23;20422;-88
2023/09/07 10:43:57;;;;;;;6.40;5.70;;;25.40;99.90;;;;;;6235811;23;20498;-88
2023/09/07 10:46:29;;;;;;;6.97;6.00;;;25.50;99.90;;;;;;6239082;23;20367;-87
2023/09/07 10:49:06;;;;;;;5.13;4.70;;;;;;;;;;6232793;23;20402;-88
2023/09/07 10:51:49;;;;;;;6.50;5.63;;;25.60;99.90;;;;;;6226984;23;20417;-87
2023/09/07 10:54:34;;;;;;;7.10;6.40;;;25.50;99.90;;;;;;6222256;23;20496;-88
2023/09/07 10:57:20;;;;;;;6.80;6.20;;;;;;;;;;6222480;23;20445;-88
2023/09/07 10:59:54;;;;;;;6.67;6.07;;;;;;;;;;6237673;23;20410;-88
2023/09/07 11:02:33;;;;;;;8.30;6.23;;;;;;;;;;6237358;23;20420;-88
2023/09/07 11:05:04;;;;;;;8.53;7.80;;;;;;;;;;6236267;23;20430;-88
2023/09/07 11:07:34;;;;;;;6.90;5.23;;;;;;;;;;6236132;23;20402;-88
2023/09/07 11:10:04;;;;;;;10.00;9.10;;;;;;;;;;6226705;23;20793;-88
2023/09/07 11:12:38;;;;;;;6.53;5.70;;;25.80;99.90;;;;;;6226500;23;20445;-88
2023/09/07 11:15:20;;;;;;;7.10;5.40;;;25.80;99.90;;;;;;6222566;23;20986;-88
2023/09/07 11:17:54;;;;;;;6.67;6.00;;;;;;;;;;6222465;23;20458;-88
2023/09/07 11:20:34;;;;;;;5.50;5.00;;;25.90;99.90;;;;;;6224647;23;20424;-88
2023/09/07 11:23:11;;;;;;;12.17;7.30;;;;;;;;;;6228277;23;20363;-88
2023/09/07 11:25:58;;;;;;;5.03;4.53;;;;;;;;;;6229326;23;20425;-89
2023/09/07 11:28:36;;;;;;;5.20;4.80;;;26.00;99.90;;;;;;6238045;23;20359;-88
2023/09/07 11:31:13;;;;;;;5.80;5.30;;;;;;;;;;6230128;23;20406;-89
2023/09/07 11:33:42;;;;;;;7.60;5.40;;;;;;;;;;6226221;23;20997;-87
2023/09/07 11:36:32;;;;;;;5.97;5.37;;;;;;;;;;6223917;23;20410;-88
2023/09/07 11:38:59;;;;;;;7.07;6.37;;;;;;;;;;6224755;23;20387;-89
2023/09/07 11:41:30;;;;;;;6.10;4.97;;;;;;;;;;6224346;23;20406;-89
2023/09/07 11:44:10;;;;;;;6.93;6.33;;;;;;;;;;6235149;23;20418;-88
2023/09/07 11:46:44;;;;;;;6.57;5.97;;;;;;;;;;6244687;23;20401;-88
2023/09/07 11:49:11;;;;;;;5.63;5.10;;;;;;;;;;6245080;23;20443;-87
2023/09/07 11:52:02;;;;;;;7.70;6.67;;;26.30;99.90;;;;;;6245082;23;20382;-87
2023/09/07 11:54:30;;;;;;;7.57;6.87;;;;;;;;;;6240229;23;20423;-88
2023/09/07 11:56:58;;;;;;;6.80;6.20;;;;;;;;;;6241931;23;20465;-88
2023/09/07 11:59:29;;;;;;;5.90;5.30;;;26.20;99.90;;;;;;6242822;23;20402;-88
2023/09/07 12:02:02;;;;;;;6.00;5.50;;;;;;;;;;6243657;23;20430;-87
2023/09/07 12:07:31;;;;;;;5.37;4.90;;;;;;;;;;6242137;23;20438;-87
2023/09/07 12:10:16;;;;;;;11.43;5.70;;;;;;;;;;6244041;23;20397;-87
2023/09/07 12:12:45;;;;;;;7.73;7.03;;;;;;;;;;6244316;23;20367;-87
2023/09/07 12:16:17;;;;;;;;;;;;;;;;;;;;;
2023/09/07 12:18:56;;;;;;;5.77;5.27;;;;;;;;;;6122696;23;20477;-88
2023/09/07 12:21:52;;;;;;;6.87;6.27;;;;;;;;;;6119548;23;20387;-89
2023/09/07 12:42:43;;;;;;;6.03;5.20;;;26.60;99.90;;;;;;6201442;23;20442;-88
2023/09/07 12:45:54;;;;;;;6.47;5.93;;;26.60;99.90;;;;;;6164819;23;20439;-88
2023/09/07 12:52:37;;;;;;;5.73;5.17;;;26.70;99.90;;;;;;5966253;24;20410;-88
2023/09/07 12:55:43;;;;;;;;;;;;;;;;;;;;;
2023/09/07 12:58:45;;;;;;;5.50;5.10;;;26.80;99.90;;;;;;6149672;23;20482;-90
2023/09/07 13:01:16;;;;;;;5.57;5.07;;;;;;;;;;6209471;23;20687;-87
2023/09/07 13:03:43;;;;;;;5.83;5.17;;;;;;;;;;6213436;23;20415;-88
2023/09/07 13:06:17;;;;;;;6.17;5.27;;;;;;;;;;6192502;23;20411;-89
2023/09/07 13:08:59;;;;;;;5.13;4.63;;;;;;;;;;6191933;23;20396;-89
2023/09/07 13:11:27;;;;;;;5.63;5.13;;;;;;;;;;6193264;23;20419;-89
2023/09/07 13:13:54;;;;;;;5.20;4.80;;;;;;;;;;6198589;23;20419;-88
2023/09/07 13:16:23;;;;;;;5.40;4.90;;;;;;;;;;6194278;23;20720;-89
2023/09/07 13:18:50;;;;;;;9.10;4.50;;;;;;;;;;6191814;23;20443;-90
2023/09/07 13:21:23;;;;;;;6.20;5.40;;;;;;;;;;6198435;23;20406;-89
2023/09/07 13:23:51;;;;;;;4.80;4.43;;;;;;;;;;6211399;23;20407;-89
2023/09/07 13:26:18;;;;;;;5.30;4.90;;;;;;;;;;6198332;23;20508;-89
2023/09/07 13:28:45;;;;;;;5.60;5.20;;;;;;;;;;6211130;23;20444;-90
2023/09/07 13:31:12;;;;;;;5.43;5.00;;;26.90;1.00;;;;;;6211927;23;20453;-88
2023/09/07 13:33:42;;;;;;;6.07;4.50;;;26.70;1.00;;;;;;6212076;23;20428;-88
2023/09/07 13:36:10;;;;;;;7.63;5.13;;;;;;;;;;6196728;23;20392;-88
2023/09/07 13:38:38;;;;;;;5.57;4.87;;;;;;;;;;6193352;23;20473;-88
2023/09/07 13:41:07;;;;;;;5.77;5.20;;;;;;;;;;6192180;23;20415;-89
2023/09/07 13:43:34;;;;;;;5.20;4.70;;;;;;;;;;6190786;23;20491;-88
2023/09/07 13:46:02;;;;;;;5.90;4.67;;;;;;;;;;6191413;23;20412;-89
2023/09/07 13:48:30;;;;;;;5.50;5.00;;;;;;;;;;6191626;23;20404;-88
2023/09/07 13:50:58;;;;;;;5.67;5.20;;;26.90;99.90;;;;;;6193387;23;20415;-88
2023/09/07 13:53:25;;;;;;;5.77;5.13;;;;;;;;;;6205319;23;20462;-88
2023/09/07 13:55:52;;;;;;;5.60;5.07;;;;;;;;;;6205429;23;20415;-88
2023/09/07 13:58:23;;;;;;;12.20;6.37;;;26.60;1.00;;;;;;6203400;23;20472;-89
2023/09/07 14:00:53;;;;;;;5.63;5.13;;;;;;;;;;6200451;23;20438;-89
2023/09/07 14:03:23;;;;;;;8.03;6.00;;;;;;;;;;6198563;23;20469;-88
2023/09/07 14:05:51;;;;;;;5.60;5.20;;;26.90;99.90;;;;;;6195958;23;20446;-89
2023/09/07 14:08:23;;;;;;;5.47;4.97;;;;;;;;;;6206450;23;20400;-89
2023/09/07 14:10:50;;;;;;;5.63;5.13;;;27.20;1.00;;;;;;6213738;23;20383;-86
2023/09/07 14:13:19;;;;;;;9.93;6.10;;;26.90;99.90;;;;;;6213595;23;20388;-85
2023/09/07 14:15:47;;;;;;;7.33;5.47;;;26.90;99.90;;;;;;6213419;23;20407;-87
2023/09/07 14:18:14;;;;;;;6.93;5.17;;;;;;;;;;6199301;23;21015;-89
2023/09/07 14:20:43;;;;;;;6.03;5.43;;;;;;;;;;6195009;23;20407;-88
2023/09/07 14:23:10;;;;;;;6.03;5.53;;;;;;;;;;6194884;23;20392;-88
2023/09/07 14:25:41;;;;;;;5.87;5.03;;;;;;;;;;6196597;23;20413;-89
2023/09/07 14:28:09;;;;;;;10.97;9.93;;;;;;;;;;6195520;23;20393;-89
2023/09/07 14:30:36;;;;;;;6.37;5.87;;;;;;;;;;6193788;23;20411;-89
2023/09/07 14:33:09;;;;;;;6.00;5.40;;;27.00;99.90;;;;;;6199260;23;20411;-88
2023/09/07 14:35:36;;;;;;;5.73;5.23;;;;;;;;;;6207414;23;20383;-88
2023/09/07 14:38:03;;;;;;;8.23;5.37;;;;;;;;;;6213186;23;20452;-88
2023/09/07 14:40:32;;;;;;;7.70;5.70;;;;;;;;;;6212116;23;20380;-88
2023/09/07 14:43:01;;;;;;;5.67;5.27;;;;;;;;;;6193141;23;20407;-89
2023/09/07 14:45:29;;;;;;;6.33;5.50;;;;;;;;;;6193844;23;20407;-89
2023/09/07 14:47:56;;;;;;;9.17;8.23;;;;;;;;;;6192969;23;20403;-88
2023/09/07 14:50:24;;;;;;;9.17;7.90;;;;;;;;;;6200983;23;20376;-88
2023/09/07 14:52:51;;;;;;;6.37;5.80;;;;;;;;;;6204723;23;20399;-89
2023/09/07 14:55:20;;;;;;;7.40;6.80;;;27.40;1.00;;;;;;6201556;23;20486;-89
2023/09/07 14:57:51;;;;;;;10.87;6.73;;;;;;;;;;6206770;23;20483;-89
2023/09/07 15:00:24;;;;;;;6.93;6.23;;;;;;;;;;6202813;23;20392;-89
2023/09/07 15:02:54;;;;;;;6.53;5.40;;;26.80;99.90;;;;;;6204823;23;20494;-90
2023/09/07 15:05:22;;;;;;;6.37;5.03;;;;;;;;;;6196334;23;20547;-89
2023/09/07 15:07:49;;;;;;;6.53;5.30;;;27.30;1.00;;;;;;6200141;23;20427;-89
2023/09/07 15:10:18;;;;;;;7.30;6.60;;;;;;;;;;6198758;23;20402;-90
2023/09/07 15:12:47;;;;;;;5.97;5.57;;;;;;;;;;6195211;23;20431;-89
2023/09/07 15:15:15;;;;;;;7.67;5.10;;;;;;;;;;6195505;23;20415;-88
2023/09/07 15:17:56;;;;;;;6.33;5.73;;;26.80;99.90;;;;;;6193338;23;20443;-88
2023/09/07 15:20:23;;;;;;;8.40;6.43;;;;;;;;;;6195472;23;20395;-89
2023/09/07 15:22:51;;;;;;;7.93;6.50;;;;;;;;;;6194566;23;20411;-88
2023/09/07 15:25:18;;;;;;;6.80;6.20;;;;;;;;;;6195711;23;20466;-89
2023/09/07 15:27:47;;;;;;;9.13;8.40;;;;;;;;;;6198894;23;20478;-89
2023/09/07 15:30:18;;;;;;;8.03;7.43;;;;;;;;;;6197530;23;20482;-88
2023/09/07 15:32:49;;;;;;;7.23;6.53;;;26.30;1.00;;;;;;6199712;23;20862;-89
2023/09/07 15:35:16;;;;;;;9.47;7.80;;;;;;;;;;6209721;23;20430;-87
2023/09/07 15:37:46;;;;;;;7.60;6.90;;;;;;;;;;6212865;23;20494;-89
2023/09/07 15:40:14;;;;;;;8.13;7.33;;;;;;;;;;6204974;23;20375;-89
2023/09/07 15:42:41;;;;;;;7.80;6.60;;;;;;;;;;6205166;23;20417;-89
2023/09/07 15:45:09;;;;;;;11.50;8.30;;;;;;;;;;6200340;23;20446;-89
2023/09/07 15:47:36;;;;;;;8.47;7.70;;;;;;;;;;6204190;23;20419;-89
2023/09/07 15:50:07;;;;;;;10.90;6.57;;;;;;;;;;6204930;23;20758;-89
2023/09/07 15:52:46;;;;;;;8.43;7.23;;;26.60;99.90;;;;;;6206972;23;20427;-88
2023/09/07 15:55:13;;;;;;;8.47;7.40;;;;;;;;;;6210693;23;20457;-89
2023/09/07 15:57:41;;;;;;;6.80;6.20;;;26.60;99.90;;;;;;6198428;23;20438;-89
2023/09/07 16:00:09;;;;;;;14.03;6.93;;;26.70;1.00;;;;;;6198498;23;20403;-90
2023/09/07 16:02:36;;;;;;;7.60;6.30;;;;;;;;;;6195457;23;20415;-89
2023/09/07 16:05:05;;;;;;;9.10;7.00;;;26.60;99.90;;;;;;6199366;23;20411;-89
2023/09/07 16:07:32;;;;;;;6.07;5.50;;;;;;;;;;6214088;23;20390;-87
2023/09/07 16:09:59;;;;;;;6.53;5.93;;;;;;;;;;6206237;23;20501;-89
2023/09/07 16:12:26;;;;;;;8.70;7.20;;;;;;;;;;6203590;23;20471;-87
2023/09/07 16:14:54;;;;;;;6.27;5.13;;;;;;;;;;6213275;23;20415;-89
2023/09/07 16:17:23;;;;;;;7.03;6.13;;;;;;;;;;6213710;23;20395;-88
2023/09/07 16:19:52;;;;;;;8.27;7.43;;;;;;;;;;6208790;23;20427;-89
2023/09/07 16:22:20;;;;;;;10.17;8.03;;;;;;;;;;6195794;23;20442;-89
2023/09/07 16:24:48;;;;;;;7.80;7.10;;;26.70;1.00;;;;;;6194653;23;20464;-90
2023/09/07 16:27:16;;;;;;;7.90;7.10;;;;;;;;;;6196549;23;20407;-90
2023/09/07 16:29:46;;;;;;;8.23;7.37;;;;;;;;;;6199872;23;20422;-89
2023/09/07 16:32:16;;;;;;;6.30;5.80;;;;;;;;;;6213706;23;20375;-85
2023/09/07 16:34:45;;;;;;;7.77;7.03;;;26.20;99.90;;;;;;6213635;23;20422;-86
2023/09/07 16:37:14;;;;;;;8.27;7.33;;;26.10;99.90;;;;;;6213726;23;20411;-85
2023/09/07 16:39:43;;;;;;;7.20;6.50;;;26.10;99.90;;;;;;6212690;23;20451;-87
2023/09/07 16:42:10;;;;;;;9.70;8.70;;;;;;;;;;6212382;23;20403;-86
2023/09/07 16:44:38;;;;;;;9.80;8.77;;;;;;;;;;6213454;23;20502;-85
2023/09/07 16:47:05;;;;;;;10.07;7.80;;;;;;;;;;6213818;23;20407;-86
2023/09/07 16:49:32;;;;;;;13.80;12.30;;;;;;;;;;6213931;23;20387;-85
2023/09/07 16:51:59;;;;;;;12.17;11.07;;;;;;;;;;6201334;23;20403;-87
2023/09/07 16:54:27;;;;;;;18.73;15.83;;;25.80;7.60;;;;;;6198869;23;20439;-87
2023/09/07 16:56:55;;;;;;;13.97;12.50;;;25.80;99.90;;;;;;6197611;23;20386;-86
2023/09/07 16:59:22;;;;;;;30.33;26.30;;;;;;;;;;6197253;23;20442;-87
2023/09/07 17:01:52;;;;;;;16.30;13.27;;;25.00;1.00;;;;;;6194667;23;20411;-87
2023/09/07 17:04:26;;;;;;;26.40;23.60;;;25.60;99.90;;;;;;6194995;23;20416;-86
2023/09/07 17:06:53;;;;;;;12.80;11.13;;;25.60;99.90;;;;;;6194209;23;20404;-86
2023/09/07 17:09:20;;;;;;;16.60;14.43;;;;;;;;;;6196464;23;20481;-87
2023/09/07 17:20:52;;;;;;;7.30;6.60;;;;;;;;;;6177266;23;20397;-89
2023/09/07 17:26:12;;;;;;;9.10;8.20;;;;;;;;;;6198792;23;20411;-88
2023/09/07 17:28:41;;;;;;;8.30;7.50;;;;;;;;;;6201634;23;20369;-89
2023/09/07 17:31:15;;;;;;;9.97;8.97;;;;;;;;;;6209121;23;20400;-89
2023/09/07 17:33:43;;;;;;;9.87;8.90;;;;;;;;;;6197896;23;20454;-88
2023/09/07 17:36:15;;;;;;;9.40;7.40;;;24.80;99.90;;;;;;6197008;23;20395;-88
2023/09/07 17:38:42;;;;;;;7.57;6.83;;;;;;;;;;6202694;23;20427;-88
2023/09/07 17:41:11;;;;;;;9.20;8.10;;;;;;;;;;6212167;23;20399;-87
2023/09/07 17:43:41;;;;;;;12.40;9.07;;;;;;;;;;6207887;23;20427;-89
2023/09/07 17:46:09;;;;;;;11.40;9.10;;;;;;;;;;6211576;23;20392;-86
2023/09/07 17:48:37;;;;;;;10.43;9.43;;;24.40;99.90;;;;;;6198175;23;20403;-86
2023/09/07 17:51:05;;;;;;;9.60;8.80;;;;;;;;;;6202684;23;20411;-88
2023/09/07 17:53:36;;;;;;;8.70;7.90;;;24.30;99.90;;;;;;6210323;23;20407;-88
2023/09/07 17:56:06;;;;;;;9.30;8.50;;;;;;;;;;6213287;23;20423;-87